createdAt,value
2022-11-29T00:01:29.948Z,100552.91
2022-11-29T00:03:57.558Z,100549.41
2022-11-29T00:06:27.443Z,100547.44
2022-11-29T00:08:55.950Z,100549.78
2022-11-29T00:11:45.326Z,100557.50
2022-11-29T00:14:15.826Z,100557.25
2022-11-29T00:16:43.206Z,100556.00
2022-11-29T00:19:11.094Z,100549.50
2022-11-29T00:21:37.902Z,100554.47
2022-11-29T00:24:05.411Z,100556.66
2022-11-29T00:26:37.117Z,100551.97
2022-11-29T00:29:05.001Z,100556.00
2022-11-29T00:31:35.293Z,100554.81
2022-11-29T00:34:04.424Z,100563.41
2022-11-29T00:36:31.177Z,100562.69
2022-11-29T00:38:58.691Z,100556.19
2022-11-29T00:41:25.743Z,100555.91
2022-11-29T00:43:52.449Z,100549.03
2022-11-29T00:46:19.120Z,100550.19
2022-11-29T00:48:45.935Z,100547.44
2022-11-29T00:51:15.609Z,100551.88
2022-11-29T00:53:42.342Z,100555.16
2022-11-29T00:56:09.076Z,100554.47
2022-11-29T00:58:36.456Z,100553.63
2022-11-29T01:01:04.269Z,100544.84
2022-11-29T01:03:31.297Z,100548.88
2022-11-29T01:06:05.956Z,100554.56
2022-11-29T01:08:32.903Z,100547.44
2022-11-29T01:11:13.733Z,100546.78
2022-11-29T01:13:41.437Z,100554.22
2022-11-29T01:16:10.168Z,100564.25
2022-11-29T01:18:40.431Z,100556.31
2022-11-29T01:21:11.403Z,100559.47
2022-11-29T01:23:38.678Z,100558.47
2022-11-29T01:26:21.011Z,100560.69
2022-11-29T01:28:50.277Z,100564.53
2022-11-29T01:31:24.229Z,100559.09
2022-11-29T01:33:58.177Z,100568.97
2022-11-29T01:36:25.694Z,100570.19
2022-11-29T01:38:52.924Z,100564.66
2022-11-29T01:41:25.655Z,100565.97
2022-11-29T01:44:04.096Z,100573.16
2022-11-29T01:46:40.462Z,100574.19
2022-11-29T01:49:25.175Z,100568.69
2022-11-29T01:51:55.793Z,100570.47
2022-11-29T01:54:22.836Z,100573.50
2022-11-29T01:56:51.820Z,100581.00
2022-11-29T01:59:22.037Z,100569.00
2022-11-29T02:01:48.931Z,100575.38
2022-11-29T02:04:18.763Z,100578.41
2022-11-29T02:06:46.191Z,100573.25
2022-11-29T02:09:23.691Z,100579.59
2022-11-29T02:12:23.003Z,100582.66
2022-11-29T02:15:23.697Z,100580.03
2022-11-29T02:18:02.711Z,100580.25
2022-11-29T02:20:51.151Z,100581.81
2022-11-29T02:23:24.438Z,100572.59
2022-11-29T02:26:15.854Z,100575.84
2022-11-29T02:29:10.455Z,100577.25
2022-11-29T02:31:57.168Z,100583.63
2022-11-29T02:34:52.035Z,100585.31
2022-11-29T02:37:57.132Z,100585.56
2022-11-29T02:40:53.464Z,100585.47
2022-11-29T02:43:54.107Z,100587.06
2022-11-29T02:46:51.866Z,100586.06
2022-11-29T02:50:03.161Z,100585.31
2022-11-29T02:52:42.934Z,100587.63
2022-11-29T02:55:16.176Z,100594.94
2022-11-29T02:57:47.241Z,100587.41
2022-11-29T03:00:18.261Z,100595.56
2022-11-29T03:03:03.426Z,100592.53
2022-11-29T03:05:35.864Z,100599.84
2022-11-29T03:08:39.816Z,100595.81
2022-11-29T03:11:09.607Z,100597.44
2022-11-29T03:14:14.559Z,100604.22
2022-11-29T03:16:58.069Z,100606.66
2022-11-29T03:19:57.342Z,100621.63
2022-11-29T03:22:57.886Z,100617.47
2022-11-29T03:25:24.552Z,100620.88
2022-11-29T03:28:15.778Z,100623.41
2022-11-29T03:30:58.914Z,100618.94
2022-11-29T03:33:46.966Z,100619.97
2022-11-29T03:36:32.279Z,100629.44
2022-11-29T03:39:05.516Z,100628.34
2022-11-29T03:41:46.709Z,100632.78
2022-11-29T03:44:17.733Z,100624.88
2022-11-29T03:46:54.708Z,100627.63
2022-11-29T03:49:27.479Z,100631.09
2022-11-29T03:52:36.595Z,100627.25
2022-11-29T03:55:32.077Z,100628.06
2022-11-29T03:58:34.711Z,100635.69
2022-11-29T04:01:35.675Z,100634.50
2022-11-29T04:04:27.764Z,100638.38
2022-11-29T04:07:16.546Z,100634.09
2022-11-29T04:10:09.503Z,100630.50
2022-11-29T04:13:04.234Z,100644.75
2022-11-29T04:15:54.719Z,100641.25
2022-11-29T04:18:36.976Z,100638.84
2022-11-29T04:21:46.713Z,100641.66
2022-11-29T04:24:31.455Z,100641.22
2022-11-29T04:27:19.232Z,100648.06
2022-11-29T04:30:21.293Z,100651.16
2022-11-29T04:32:50.984Z,100648.59
2022-11-29T04:35:57.735Z,100652.69
2022-11-29T04:38:46.829Z,100658.81
2022-11-29T04:41:35.412Z,100656.84
2022-11-29T04:44:08.175Z,100653.06
2022-11-29T04:46:59.588Z,100654.31
2022-11-29T04:49:29.235Z,100653.97
2022-11-29T04:51:55.850Z,100655.59
2022-11-29T04:54:47.516Z,100657.09
2022-11-29T04:57:37.685Z,100663.09
2022-11-29T05:00:15.093Z,100663.91
2022-11-29T05:03:35.615Z,100662.81
2022-11-29T05:06:23.951Z,100665.53
2022-11-29T05:08:56.489Z,100660.09
2022-11-29T05:11:27.038Z,100670.72
2022-11-29T05:14:15.136Z,100674.66
2022-11-29T05:16:53.753Z,100679.25
2022-11-29T05:20:05.021Z,100671.94
2022-11-29T05:22:50.469Z,100681.53
2022-11-29T05:25:42.027Z,100678.34
2022-11-29T05:28:26.009Z,100687.03
2022-11-29T05:31:11.447Z,100694.19
2022-11-29T05:33:56.911Z,100693.81
2022-11-29T05:36:54.104Z,100702.09
2022-11-29T05:39:37.664Z,100694.44
2022-11-29T05:42:19.848Z,100700.53
2022-11-29T05:45:04.827Z,100709.09
2022-11-29T05:47:43.982Z,100712.69
2022-11-29T05:50:39.847Z,100712.44
2022-11-29T05:53:42.008Z,100711.69
2022-11-29T05:56:26.891Z,100714.91
2022-11-29T05:59:05.952Z,100720.59
2022-11-29T06:01:50.233Z,100726.38
2022-11-29T06:04:56.026Z,100725.59
2022-11-29T06:07:48.466Z,100726.66
2022-11-29T06:10:20.116Z,100732.03
2022-11-29T06:13:05.805Z,100731.47
2022-11-29T06:16:10.525Z,100736.44
2022-11-29T06:18:51.052Z,100729.69
2022-11-29T06:21:25.144Z,100732.25
2022-11-29T06:24:11.869Z,100733.47
2022-11-29T06:26:58.127Z,100744.41
2022-11-29T06:29:57.399Z,100737.75
2022-11-29T06:33:03.178Z,100741.88
2022-11-29T06:35:36.019Z,100748.00
2022-11-29T06:38:30.142Z,100744.41
2022-11-29T06:41:01.884Z,100742.56
2022-11-29T06:43:30.225Z,100753.63
2022-11-29T06:45:59.587Z,100748.09
2022-11-29T06:48:28.948Z,100754.97
2022-11-29T06:51:29.735Z,100760.22
2022-11-29T06:54:19.492Z,100762.41
2022-11-29T06:57:04.283Z,100763.59
2022-11-29T06:59:44.250Z,100776.28
2022-11-29T07:02:48.768Z,100772.75
2022-11-29T07:05:24.859Z,100776.81
2022-11-29T07:07:55.645Z,100773.94
2022-11-29T07:10:25.706Z,100774.59
2022-11-29T07:12:53.783Z,100780.44
2022-11-29T07:15:22.527Z,100777.63
2022-11-29T07:18:14.323Z,100772.50
2022-11-29T07:20:50.926Z,100785.88
2022-11-29T07:23:27.813Z,100783.50
2022-11-29T07:25:57.409Z,100789.44
2022-11-29T07:28:43.620Z,100781.78
2022-11-29T07:31:25.257Z,100791.19
2022-11-29T07:34:16.275Z,100791.59
2022-11-29T07:36:45.823Z,100784.38
2022-11-29T07:39:50.919Z,100791.31
2022-11-29T07:42:31.449Z,100792.28
2022-11-29T07:45:26.041Z,100799.06
2022-11-29T07:47:53.223Z,100799.22
2022-11-29T07:50:23.160Z,100804.25
2022-11-29T07:52:50.051Z,100806.56
2022-11-29T07:55:20.074Z,100810.78
2022-11-29T07:57:47.970Z,100810.75
2022-11-29T08:00:23.198Z,100812.69
2022-11-29T08:02:53.427Z,100804.25
2022-11-29T08:05:20.169Z,100818.63
2022-11-29T08:07:47.770Z,100813.69
2022-11-29T08:10:15.762Z,100811.38
2022-11-29T08:12:48.302Z,100821.50
2022-11-29T08:15:15.151Z,100816.03
2022-11-29T08:17:41.961Z,100817.22
2022-11-29T08:20:11.083Z,100821.03
2022-11-29T08:22:39.117Z,100814.16
2022-11-29T08:25:10.753Z,100821.84
2022-11-29T08:27:38.788Z,100816.84
2022-11-29T08:30:07.202Z,100824.56
2022-11-29T08:32:34.669Z,100824.28
2022-11-29T08:35:01.286Z,100828.69
2022-11-29T08:37:27.997Z,100825.72
2022-11-29T08:39:55.352Z,100834.88
2022-11-29T08:42:29.142Z,100826.13
2022-11-29T08:44:55.841Z,100836.84
2022-11-29T08:47:39.872Z,100834.66
2022-11-29T08:50:14.349Z,100837.91
2022-11-29T08:53:03.270Z,100847.53
2022-11-29T08:55:48.142Z,100848.53
2022-11-29T08:58:18.696Z,100845.47
2022-11-29T09:00:47.347Z,100856.78
2022-11-29T09:03:32.832Z,100858.06
2022-11-29T09:06:10.464Z,100862.72
2022-11-29T09:08:38.987Z,100862.44
2022-11-29T09:11:16.305Z,100865.56
2022-11-29T09:13:45.374Z,100870.88
2022-11-29T09:16:14.901Z,100864.34
2022-11-29T09:18:43.910Z,100877.03
2022-11-29T09:21:14.735Z,100871.69
2022-11-29T09:23:43.972Z,100869.88
2022-11-29T09:26:16.162Z,100878.28
2022-11-29T09:28:42.870Z,100872.00
2022-11-29T09:31:14.768Z,100883.75
2022-11-29T09:33:42.063Z,100880.13
2022-11-29T09:36:12.702Z,100891.31
2022-11-29T09:38:40.759Z,100884.59
2022-11-29T09:41:26.097Z,100885.78
2022-11-29T09:44:17.133Z,100889.91
2022-11-29T09:47:19.996Z,100890.06
2022-11-29T09:50:01.901Z,100896.81
2022-11-29T09:52:53.989Z,100897.00
2022-11-29T09:55:37.919Z,100905.91
2022-11-29T09:58:09.690Z,100900.88
2022-11-29T10:00:42.368Z,100903.88
2022-11-29T10:03:23.333Z,100901.50
2022-11-29T10:05:57.470Z,100900.25
2022-11-29T10:08:28.625Z,100901.22
2022-11-29T10:11:15.166Z,100892.81
2022-11-29T10:13:48.971Z,100899.75
2022-11-29T10:16:23.060Z,100901.63
2022-11-29T10:19:20.869Z,100908.63
2022-11-29T10:21:57.335Z,100903.19
2022-11-29T10:24:26.975Z,100905.81
2022-11-29T10:26:53.636Z,100908.72
2022-11-29T10:29:20.825Z,100913.81
2022-11-29T10:31:49.628Z,100911.34
2022-11-29T10:34:22.433Z,100908.59
2022-11-29T10:36:59.573Z,100916.84
2022-11-29T10:39:42.225Z,100907.22
2022-11-29T10:42:35.332Z,100903.72
2022-11-29T10:45:03.036Z,100918.53
2022-11-29T10:47:30.023Z,100912.66
2022-11-29T10:49:57.356Z,100914.97
2022-11-29T10:52:27.006Z,100926.66
2022-11-29T10:54:58.642Z,100915.78
2022-11-29T10:57:25.399Z,100907.94
2022-11-29T11:00:06.875Z,100915.25
2022-11-29T11:02:34.440Z,100916.84
2022-11-29T11:05:01.616Z,100908.47
2022-11-29T11:07:37.221Z,100913.91
2022-11-29T11:10:26.713Z,100916.06
2022-11-29T11:13:07.097Z,100907.97
2022-11-29T11:15:34.044Z,100910.78
2022-11-29T11:18:04.922Z,100917.47
2022-11-29T11:20:41.566Z,100911.06
2022-11-29T11:23:38.646Z,100921.81
2022-11-29T11:26:11.473Z,100921.00
2022-11-29T11:28:49.501Z,100914.25
2022-11-29T11:31:27.849Z,100930.88
2022-11-29T11:33:55.090Z,100926.94
2022-11-29T11:36:25.104Z,100923.56
2022-11-29T11:38:51.767Z,100934.06
2022-11-29T11:41:21.603Z,100924.16
2022-11-29T11:43:58.866Z,100925.31
2022-11-29T11:46:48.552Z,100925.47
2022-11-29T11:49:53.528Z,100934.47
2022-11-29T11:52:32.184Z,100940.38
2022-11-29T11:55:04.790Z,100936.19
2022-11-29T11:57:34.015Z,100937.72
2022-11-29T12:00:07.161Z,100939.09
2022-11-29T12:02:40.968Z,100936.91
2022-11-29T12:05:15.675Z,100935.69
2022-11-29T12:08:09.860Z,100938.00
2022-11-29T12:10:40.504Z,100943.59
2022-11-29T12:13:17.079Z,100943.69
2022-11-29T12:15:47.290Z,100946.63
2022-11-29T12:18:33.836Z,100945.41
2022-11-29T12:21:23.447Z,100947.59
2022-11-29T12:23:54.199Z,100937.16
2022-11-29T12:26:55.954Z,100948.25
2022-11-29T12:29:18.559Z,100954.22
2022-11-29T12:54:51.114Z,100972.00
2022-11-29T12:57:35.905Z,100975.81
2022-11-29T13:00:05.765Z,100978.25
2022-11-29T13:02:44.465Z,100978.56
2022-11-29T13:05:38.946Z,100977.13
2022-11-29T13:08:31.313Z,100985.97
2022-11-29T13:11:22.733Z,100986.47
2022-11-29T13:14:08.320Z,100988.38
2022-11-29T13:16:45.749Z,100986.66
2022-11-29T13:19:17.721Z,100990.25
2022-11-29T13:21:56.797Z,100984.50
2022-11-29T13:24:41.224Z,100987.22
2022-11-29T13:27:16.024Z,100982.72
2022-11-29T13:29:43.054Z,100990.34
2022-11-29T13:32:26.987Z,100989.06
2022-11-29T13:34:59.394Z,100989.78
2022-11-29T13:37:35.750Z,101002.09
2022-11-29T13:40:31.743Z,100998.75
2022-11-29T13:43:30.313Z,100995.22
2022-11-29T13:46:25.228Z,100999.44
2022-11-29T13:48:54.100Z,100998.38
2022-11-29T13:51:29.705Z,101000.06
2022-11-29T13:53:59.827Z,101007.03
2022-11-29T13:56:36.305Z,101009.97
2022-11-29T13:59:08.602Z,101007.13
2022-11-29T14:01:45.354Z,101011.47
2022-11-29T14:04:39.404Z,101005.09
2022-11-29T14:07:05.937Z,101010.97
2022-11-29T14:09:35.434Z,101013.94
2022-11-29T14:12:39.319Z,101014.91
2022-11-29T14:15:21.006Z,101021.81
2022-11-29T14:17:55.724Z,101026.84
2022-11-29T14:20:22.278Z,101023.38
2022-11-29T14:23:30.989Z,101026.41
2022-11-29T14:25:57.746Z,101028.63
2022-11-29T14:28:24.292Z,101024.84
2022-11-29T14:30:55.467Z,101031.63
2022-11-29T14:33:44.688Z,101029.13
2022-11-29T14:36:29.926Z,101024.66
2022-11-29T14:39:20.630Z,101045.69
2022-11-29T14:42:14.545Z,101034.50
2022-11-29T14:44:53.662Z,101036.25
2022-11-29T14:47:27.181Z,101039.59
2022-11-29T14:49:56.141Z,101034.56
2022-11-29T14:52:28.568Z,101046.41
2022-11-29T14:55:16.626Z,101043.31
2022-11-29T14:58:01.909Z,101051.16
2022-11-29T15:00:34.741Z,101044.31
2022-11-29T15:03:13.000Z,101049.28
2022-11-29T15:05:42.536Z,101057.66
2022-11-29T15:08:27.804Z,101059.69
2022-11-29T15:11:01.042Z,101055.31
2022-11-29T15:13:35.949Z,101063.34
2022-11-29T15:16:58.037Z,101056.38
2022-11-29T15:19:46.436Z,101072.28
2022-11-29T15:22:29.502Z,101067.03
2022-11-29T15:25:13.020Z,101064.44
2022-11-29T15:27:56.847Z,101065.31
2022-11-29T15:30:33.374Z,101070.50
2022-11-29T15:33:01.888Z,101066.06
2022-11-29T15:35:29.327Z,101068.66
2022-11-29T15:37:56.693Z,101062.56
2022-11-29T15:40:35.164Z,101074.81
2022-11-29T15:43:22.886Z,101068.72
2022-11-29T15:45:55.509Z,101078.44
2022-11-29T15:48:24.985Z,101078.47
2022-11-29T15:51:18.021Z,101077.47
2022-11-29T15:53:54.049Z,101080.06
2022-11-29T15:56:36.392Z,101082.56
2022-11-29T15:59:14.921Z,101075.53
2022-11-29T16:01:44.982Z,101082.16
2022-11-29T16:04:29.736Z,101081.63
2022-11-29T16:06:57.591Z,101080.81
2022-11-29T16:09:38.898Z,101082.69
2022-11-29T16:12:11.556Z,101089.50
2022-11-29T16:14:48.745Z,101085.09
2022-11-29T16:17:15.501Z,101087.00
2022-11-29T16:19:43.046Z,101087.81
2022-11-29T16:22:12.390Z,101095.81
2022-11-29T16:24:45.895Z,101095.78
2022-11-29T16:27:14.163Z,101103.78
2022-11-29T16:29:46.069Z,101103.59
2022-11-29T16:32:30.192Z,101094.50
2022-11-29T16:35:05.364Z,101110.63
2022-11-29T16:37:39.713Z,101097.28
2022-11-29T16:40:07.444Z,101098.28
2022-11-29T16:42:34.677Z,101098.88
2022-11-29T16:45:19.894Z,101101.41
2022-11-29T16:47:47.694Z,101105.22
2022-11-29T16:50:21.088Z,101107.09
2022-11-29T16:52:52.026Z,101110.63
2022-11-29T16:55:21.650Z,101106.97
2022-11-29T16:57:48.954Z,101106.97
2022-11-29T17:00:23.696Z,101114.03
2022-11-29T17:02:50.586Z,101124.47
2022-11-29T17:05:17.240Z,101118.47
2022-11-29T17:07:44.215Z,101114.09
2022-11-29T17:10:16.509Z,101122.78
2022-11-29T17:12:47.796Z,101126.31
2022-11-29T17:15:15.174Z,101119.38
2022-11-29T17:17:43.284Z,101124.34
2022-11-29T17:20:12.341Z,101128.72
2022-11-29T17:22:39.299Z,101131.59
2022-11-29T17:25:06.532Z,101129.81
2022-11-29T17:27:33.108Z,101133.41
2022-11-29T17:29:59.764Z,101140.25
2022-11-29T17:32:26.989Z,101140.28
2022-11-29T17:34:54.005Z,101135.00
2022-11-29T17:37:20.656Z,101135.00
2022-11-29T17:39:49.122Z,101132.25
2022-11-29T17:42:15.833Z,101139.22
2022-11-29T17:44:42.576Z,101142.91
2022-11-29T17:47:09.154Z,101148.03
2022-11-29T17:49:35.794Z,101155.00
2022-11-29T17:52:02.741Z,101155.91
2022-11-29T17:54:32.951Z,101161.00
2022-11-29T17:57:00.767Z,101164.00
2022-11-29T17:59:27.384Z,101162.09
2022-11-29T18:01:54.107Z,101160.25
2022-11-29T18:04:20.810Z,101162.88
2022-11-29T18:06:50.287Z,101173.66
2022-11-29T18:09:18.523Z,101169.31
2022-11-29T18:11:48.673Z,101173.59
2022-11-29T18:14:19.310Z,101176.25
2022-11-29T18:16:46.120Z,101165.69
2022-11-29T18:19:15.671Z,101176.25
2022-11-29T18:21:42.728Z,101173.75
2022-11-29T18:24:09.859Z,101178.97
2022-11-29T18:26:37.618Z,101174.31
2022-11-29T18:29:05.769Z,101172.53
2022-11-29T18:31:35.189Z,101177.91
2022-11-29T18:34:06.252Z,101177.13
2022-11-29T18:36:35.332Z,101176.81
2022-11-29T18:39:10.916Z,101178.91
2022-11-29T18:41:38.226Z,101175.34
2022-11-29T18:44:09.957Z,101177.84
2022-11-29T18:46:37.850Z,101175.19
2022-11-29T18:49:07.195Z,101177.03
2022-11-29T18:51:35.191Z,101184.09
2022-11-29T18:54:02.448Z,101178.09
2022-11-29T18:56:30.806Z,101180.53
2022-11-29T18:59:03.332Z,101178.59
2022-11-29T19:01:32.481Z,101186.59
2022-11-29T19:04:00.554Z,101184.72
2022-11-29T19:06:37.155Z,101182.03
2022-11-29T19:09:06.951Z,101186.31
2022-11-29T19:11:34.608Z,101182.25
2022-11-29T19:14:03.263Z,101182.09
2022-11-29T19:16:32.858Z,101179.63
2022-11-29T19:19:00.600Z,101181.41
2022-11-29T19:21:28.397Z,101181.94
2022-11-29T19:23:57.498Z,101182.38
2022-11-29T19:26:26.712Z,101186.75
2022-11-29T19:28:53.809Z,101184.09
2022-11-29T19:31:23.961Z,101182.22
2022-11-29T19:33:52.602Z,101172.50
2022-11-29T19:36:21.517Z,101180.28
2022-11-29T19:38:53.161Z,101176.78
2022-11-29T19:41:26.624Z,101176.81
2022-11-29T19:43:55.508Z,101184.59
2022-11-29T19:46:24.956Z,101184.75
2022-11-29T19:48:53.230Z,101197.22
2022-11-29T19:51:20.625Z,101191.03
2022-11-29T19:53:48.313Z,101183.81
2022-11-29T19:56:16.865Z,101188.06
2022-11-29T19:58:44.349Z,101179.56
2022-11-29T20:01:15.682Z,101185.28
2022-11-29T20:03:43.292Z,101190.75
2022-11-29T20:06:10.056Z,101189.47
2022-11-29T20:08:38.292Z,101190.34
2022-11-29T20:11:13.766Z,101198.84
2022-11-29T20:13:42.721Z,101199.94
2022-11-29T20:16:12.522Z,101203.22
2022-11-29T20:18:44.602Z,101201.34
2022-11-29T20:21:36.365Z,101208.25
2022-11-29T20:24:06.133Z,101198.59
2022-11-29T20:26:35.933Z,101208.31
2022-11-29T20:29:03.326Z,101213.69
2022-11-29T20:31:31.977Z,101210.38
2022-11-29T20:33:59.126Z,101203.38
2022-11-29T20:36:44.624Z,101207.75
2022-11-29T20:39:28.961Z,101201.50
2022-11-29T20:42:26.310Z,101208.41
2022-11-29T20:44:57.359Z,101215.50
2022-11-29T20:47:32.593Z,101215.34
2022-11-29T20:49:59.309Z,101208.44
2022-11-29T20:52:44.701Z,101212.03
2022-11-29T20:55:11.377Z,101211.03
2022-11-29T20:57:38.408Z,101220.69
2022-11-29T21:00:11.457Z,101220.69
2022-11-29T21:02:38.338Z,101213.75
2022-11-29T21:05:05.957Z,101217.25
2022-11-29T21:07:32.640Z,101211.84
2022-11-29T21:10:01.411Z,101218.19
2022-11-29T21:12:29.420Z,101224.97
2022-11-29T21:14:56.564Z,101216.97
2022-11-29T21:17:27.544Z,101216.97
2022-11-29T21:19:58.723Z,101217.22
2022-11-29T21:22:51.140Z,101219.84
2022-11-29T21:25:48.884Z,101223.44
2022-11-29T21:28:16.440Z,101226.66
2022-11-29T21:30:43.952Z,101222.47
2022-11-29T21:33:11.408Z,101233.63
2022-11-29T21:35:42.212Z,101233.63
2022-11-29T21:38:14.688Z,101237.16
2022-11-29T21:40:41.338Z,101228.75
2022-11-29T21:43:07.887Z,101227.69
2022-11-29T21:45:34.521Z,101231.09
2022-11-29T21:48:01.170Z,101231.06
2022-11-29T21:50:27.806Z,101220.47
2022-11-29T21:52:54.368Z,101230.16
2022-11-29T21:55:21.004Z,101231.91
2022-11-29T21:57:47.550Z,101232.84
2022-11-29T22:00:14.713Z,101233.69
2022-11-29T22:02:41.368Z,101241.50
2022-11-29T22:05:09.578Z,101231.06
2022-11-29T22:07:36.361Z,101234.63
2022-11-29T22:10:09.940Z,101229.31
2022-11-29T22:12:49.354Z,101238.16
2022-11-29T22:15:24.166Z,101240.66
2022-11-29T22:17:53.390Z,101238.94
2022-11-29T22:20:20.531Z,101241.53
2022-11-29T22:22:48.527Z,101237.06
2022-11-29T22:25:15.866Z,101239.75
2022-11-29T22:27:42.454Z,101245.78
2022-11-29T22:30:09.392Z,101248.53
2022-11-29T22:32:35.992Z,101257.22
2022-11-29T22:35:02.549Z,101258.00
2022-11-29T22:37:29.127Z,101258.16
2022-11-29T22:39:55.893Z,101257.25
2022-11-29T22:42:22.509Z,101257.25
2022-11-29T22:44:49.249Z,101255.47
2022-11-29T22:47:15.936Z,101251.03
2022-11-29T22:49:44.462Z,101247.59
2022-11-29T22:52:11.103Z,101253.78
2022-11-29T22:54:37.719Z,101251.88
2022-11-29T22:57:04.329Z,101240.56
2022-11-29T22:59:30.965Z,101243.34
2022-11-29T23:01:57.690Z,101245.09
2022-11-29T23:04:24.281Z,101249.34
2022-11-29T23:06:50.906Z,101248.41
2022-11-29T23:09:21.700Z,101247.59
2022-11-29T23:11:54.172Z,101250.09
2022-11-29T23:14:22.176Z,101241.50
2022-11-29T23:16:49.058Z,101241.38
2022-11-29T23:19:16.332Z,101248.59
2022-11-29T23:21:45.623Z,101247.75
2022-11-29T23:24:13.429Z,101250.31
2022-11-29T23:26:43.480Z,101257.25
2022-11-29T23:29:13.275Z,101244.28
2022-11-29T23:31:40.095Z,101246.72
2022-11-29T23:34:07.173Z,101245.06
2022-11-29T23:36:34.030Z,101241.59
2022-11-29T23:39:04.190Z,101248.63
2022-11-29T23:41:30.806Z,101252.13
2022-11-29T23:43:59.694Z,101246.06
2022-11-29T23:46:26.369Z,101246.94
2022-11-29T23:48:53.085Z,101247.94
2022-11-29T23:51:20.255Z,101259.16
2022-11-29T23:53:51.111Z,101258.19
2022-11-29T23:56:18.550Z,101246.78
2022-11-29T23:58:45.513Z,101264.28
